Wetterdaten: Woche 01.01.18 - 07.01.18 (KW1)
Datum Zeit Temp. A. Feuchte A. Luftdruck Regen Wind Richtung Taupunkt Windchill Windben
01.01.2018 00:00 1,0 C 84 % 1009,0 hPa 0,0 l/m 0,0 km/h N -1,5 C 1,0 C 0,0 km/h
01.01.2018 01:00 0,2 C 84 % 1008,4 hPa 0,0 l/m 0,0 km/h N -2,2 C 0,2 C 0,0 km/h
01.01.2018 02:00 -0,5 C 84 % 1008,2 hPa 0,0 l/m 0,0 km/h N -2,8 C -0,5 C 0,0 km/h
01.01.2018 03:00 0,5 C 84 % 1007,9 hPa 0,0 l/m 0,0 km/h N -1,9 C 0,5 C 0,0 km/h
01.01.2018 04:00 1,3 C 84 % 1008,0 hPa 0,0 l/m 0,0 km/h N -1,1 C 1,3 C 0,0 km/h
01.01.2018 05:00 1,8 C 84 % 1007,9 hPa 0,0 l/m 0,0 km/h N -0,6 C 1,8 C 0,8 km/h
01.01.2018 06:00 2,2 C 84 % 1008,2 hPa 0,0 l/m 0,0 km/h N -0,2 C 2,2 C 0,0 km/h
01.01.2018 07:00 2,2 C 84 % 1008,9 hPa 0,0 l/m 0,0 km/h N -0,2 C 2,2 C 0,0 km/h
01.01.2018 08:00 2,3 C 84 % 1009,5 hPa 0,0 l/m 0,0 km/h N -0,1 C 2,3 C 0,0 km/h
01.01.2018 09:00 2,7 C 84 % 1010,4 hPa 0,0 l/m 0,0 km/h N 0,2 C 2,7 C 0,8 km/h
01.01.2018 10:00 7,1 C 80 % 1010,7 hPa 0,0 l/m 11,0 km/h N 3,9 C 3,6 C 29,4 km/h
01.01.2018 11:00 9,7 C 65 % 1010,6 hPa 0,0 l/m 10,8 km/h N 3,5 C 6,8 C 31,8 km/h
01.01.2018 12:00 9,9 C 61 % 1010,5 hPa 0,0 l/m 9,0 km/h N 2,7 C 8,1 C 27,4 km/h
01.01.2018 13:00 9,8 C 60 % 1010,3 hPa 0,0 l/m 10,4 km/h N 2,4 C 7,2 C 27,8 km/h
01.01.2018 14:00 9,6 C 59 % 1009,9 hPa 0,0 l/m 8,5 km/h N 2,0 C 8,2 C 24,1 km/h
01.01.2018 15:00 9,5 C 58 % 1009,5 hPa 0,0 l/m 8,2 km/h N 1,7 C 8,2 C 25,7 km/h
01.01.2018 16:00 9,3 C 58 % 1009,2 hPa 0,0 l/m 5,0 km/h N 1,6 C 9,0 C 19,3 km/h
01.01.2018 17:00 8,7 C 60 % 1008,9 hPa 0,0 l/m 0,2 km/h N 1,3 C 8,7 C 4,0 km/h
01.01.2018 18:00 7,7 C 63 % 1009,0 hPa 0,0 l/m 0,0 km/h N 1,0 C 7,7 C 0,0 km/h
01.01.2018 19:00 6,4 C 67 % 1008,8 hPa 0,0 l/m 0,0 km/h N 0,7 C 6,4 C 0,8 km/h
01.01.2018 20:00 4,8 C 71 % 1008,3 hPa 0,0 l/m 0,0 km/h N -0,0 C 4,8 C 0,4 km/h
01.01.2018 21:00 3,1 C 76 % 1007,9 hPa 0,0 l/m 0,0 km/h N -0,8 C 3,1 C 0,0 km/h
01.01.2018 22:00 2,0 C 79 % 1007,5 hPa 0,0 l/m 0,0 km/h N -1,2 C 2,0 C 0,4 km/h
01.01.2018 23:00 1,2 C 82 % 1007,3 hPa 0,0 l/m 0,0 km/h N -1,6 C 1,2 C 0,0 km/h
02.01.2018 00:00 0,5 C 83 % 1006,9 hPa 0,0 l/m 0,1 km/h N -2,0 C 0,5 C 2,4 km/h
02.01.2018 01:00 1,7 C 84 % 1006,6 hPa 0,0 l/m 0,0 km/h N -0,8 C 1,7 C 1,6 km/h
02.01.2018 02:00 0,7 C 84 % 1006,9 hPa 0,0 l/m 0,0 km/h N -1,7 C 0,7 C 0,4 km/h
02.01.2018 03:00 0,1 C 84 % 1007,0 hPa 0,0 l/m 0,2 km/h N -2,2 C 0,1 C 2,4 km/h
02.01.2018 04:00 0,4 C 84 % 1006,8 hPa 0,0 l/m 0,0 km/h N -2,0 C 0,4 C 0,0 km/h
02.01.2018 05:00 1,1 C 84 % 1007,0 hPa 0,0 l/m 0,0 km/h N -1,3 C 1,1 C 0,4 km/h
02.01.2018 06:00 3,8 C 82 % 1006,9 hPa 0,0 l/m 5,8 km/h N 1,0 C 2,0 C 22,5 km/h
02.01.2018 07:00 7,9 C 66 % 1007,2 hPa 0,0 l/m 18,0 km/h N 1,8 C 1,3 C 47,0 km/h
02.01.2018 08:00 7,7 C 65 % 1008,0 hPa 0,0 l/m 16,7 km/h N 1,4 C 1,6 C 40,2 km/h
02.01.2018 09:00 8,3 C 60 % 1008,7 hPa 0,0 l/m 17,0 km/h N 1,0 C 2,2 C 41,0 km/h
02.01.2018 10:00 8,2 C 61 % 1009,3 hPa 0,0 l/m 16,1 km/h N 1,0 C 2,4 C 42,2 km/h
02.01.2018 11:00 8,2 C 60 % 1009,2 hPa 0,0 l/m 16,2 km/h N 1,0 C 2,4 C 43,5 km/h
02.01.2018 12:00 8,1 C 61 % 1008,9 hPa 0,0 l/m 17,5 km/h N 1,1 C 1,8 C 43,5 km/h
02.01.2018 13:00 8,2 C 61 % 1009,0 hPa 0,0 l/m 18,1 km/h N 1,2 C 1,6 C 42,6 km/h
02.01.2018 14:00 7,8 C 64 % 1009,5 hPa 0,0 l/m 19,6 km/h N 1,5 C 0,6 C 45,1 km/h
02.01.2018 15:00 7,3 C 66 % 1010,4 hPa 0,0 l/m 16,0 km/h N 1,3 C 1,4 C 39,4 km/h
02.01.2018 16:00 6,8 C 68 % 1011,6 hPa 0,0 l/m 14,1 km/h N 1,3 C 1,7 C 35,8 km/h
02.01.2018 17:00 6,2 C 72 % 1012,6 hPa 0,0 l/m 12,7 km/h N 1,5 C 1,7 C 33,8 km/h
02.01.2018 18:00 6,0 C 73 % 1012,9 hPa 0,0 l/m 12,2 km/h N 1,4 C 1,8 C 33,4 km/h
02.01.2018 19:00 5,8 C 74 % 1013,5 hPa 0,0 l/m 9,8 km/h N 1,5 C 3,2 C 24,1 km/h
02.01.2018 20:00 5,7 C 74 % 1014,0 hPa 0,0 l/m 7,6 km/h N 1,5 C 4,6 C 21,7 km/h
02.01.2018 21:00 5,8 C 74 % 1014,5 hPa 0,0 l/m 8,9 km/h N 1,5 C 3,8 C 24,9 km/h
02.01.2018 22:00 5,4 C 75 % 1014,7 hPa 0,0 l/m 7,7 km/h N 1,4 C 4,3 C 21,3 km/h
02.01.2018 23:00 5,3 C 73 % 1014,5 hPa 0,0 l/m 8,8 km/h N 0,9 C 3,3 C 22,9 km/h
03.01.2018 00:00 5,1 C 72 % 1014,0 hPa 0,0 l/m 7,2 km/h N 0,5 C 4,4 C 20,1 km/h
03.01.2018 01:00 4,5 C 74 % 1013,4 hPa 0,0 l/m 1,6 km/h N 0,2 C 4,5 C 8,0 km/h
03.01.2018 02:00 3,0 C 76 % 1013,2 hPa 0,0 l/m 0,1 km/h N -0,8 C 3,0 C 1,6 km/h
03.01.2018 03:00 1,3 C 79 % 1012,6 hPa 0,0 l/m 0,0 km/h N -2,0 C 1,3 C 0,0 km/h
03.01.2018 04:00 0,3 C 81 % 1011,6 hPa 0,0 l/m 0,1 km/h N -2,6 C 0,3 C 1,2 km/h
03.01.2018 05:00 1,3 C 81 % 1010,2 hPa 0,0 l/m 0,1 km/h N -1,5 C 1,3 C 2,4 km/h
03.01.2018 06:00 1,6 C 77 % 1009,0 hPa 0,0 l/m 0,0 km/h N -2,0 C 1,6 C 0,8 km/h
03.01.2018 07:00 1,7 C 75 % 1007,0 hPa 0,0 l/m 0,1 km/h N -2,3 C 1,7 C 2,0 km/h
03.01.2018 08:00 2,3 C 71 % 1005,2 hPa 0,0 l/m 0,3 km/h N -2,5 C 2,3 C 4,0 km/h
03.01.2018 09:00 2,6 C 72 % 1002,6 hPa 0,0 l/m 0,1 km/h N -1,9 C 2,6 C 3,2 km/h
03.01.2018 10:00 2,9 C 77 % 999,7 hPa 0,3 l/m 0,1 km/h N -0,7 C 2,9 C 2,8 km/h
03.01.2018 11:00 3,5 C 79 % 997,5 hPa 1,0 l/m 0,1 km/h N 0,2 C 3,5 C 2,8 km/h
03.01.2018 12:00 5,1 C 75 % 994,7 hPa 0,0 l/m 0,6 km/h N 1,0 C 5,1 C 8,0 km/h
03.01.2018 13:00 6,2 C 68 % 996,0 hPa 1,0 l/m 0,4 km/h N 0,7 C 6,2 C 4,4 km/h
03.01.2018 14:00 8,1 C 82 % 996,1 hPa 2,3 l/m 7,2 km/h N 5,1 C 7,5 C 24,5 km/h
03.01.2018 15:00 8,1 C 77 % 997,4 hPa 0,3 l/m 9,5 km/h N 4,3 C 5,9 C 37,4 km/h
03.01.2018 16:00 7,8 C 71 % 998,3 hPa 0,0 l/m 12,3 km/h N 2,8 C 3,9 C 37,8 km/h
03.01.2018 17:00 8,0 C 66 % 999,3 hPa 0,0 l/m 16,2 km/h N 1,9 C 2,3 C 47,9 km/h
03.01.2018 18:00 7,8 C 65 % 1000,4 hPa 0,0 l/m 16,4 km/h N 1,7 C 1,9 C 42,3 km/h
03.01.2018 19:00 7,7 C 65 % 1000,8 hPa 0,0 l/m 17,5 km/h N 1,5 C 1,2 C 45,9 km/h
03.01.2018 20:00 7,6 C 65 % 1000,9 hPa 0,0 l/m 16,2 km/h N 1,3 C 1,7 C 41,5 km/h
03.01.2018 21:00 7,8 C 63 % 1001,3 hPa 0,0 l/m 14,6 km/h N 1,1 C 2,7 C 42,6 km/h
03.01.2018 22:00 8,1 C 61 % 1001,6 hPa 0,0 l/m 14,2 km/h N 1,0 C 3,3 C 43,8 km/h
03.01.2018 23:00 8,4 C 59 % 1001,8 hPa 0,0 l/m 15,2 km/h N 0,7 C 3,1 C 46,3 km/h
04.01.2018 00:00 8,6 C 58 % 1001,5 hPa 0,0 l/m 20,3 km/h N 0,7 C 1,4 C 51,1 km/h
04.01.2018 01:00 8,6 C 58 % 1000,8 hPa 0,0 l/m 20,0 km/h N 0,8 C 1,5 C 50,3 km/h
04.01.2018 02:00 8,6 C 57 % 1002,0 hPa 0,0 l/m 15,2 km/h N 0,4 C 3,4 C 41,8 km/h
04.01.2018 03:00 8,1 C 60 % 1002,7 hPa 0,0 l/m 12,7 km/h N 0,7 C 4,0 C 37,0 km/h
04.01.2018 04:00 7,7 C 62 % 1002,7 hPa 0,0 l/m 9,0 km/h N 0,9 C 5,8 C 28,6 km/h
04.01.2018 05:00 7,6 C 61 % 1003,1 hPa 0,0 l/m 6,9 km/h N 0,7 C 7,0 C 26,1 km/h
04.01.2018 06:00 7,8 C 61 % 1003,5 hPa 0,0 l/m 7,9 km/h N 0,8 C 6,6 C 29,8 km/h
04.01.2018 07:00 8,0 C 61 % 1003,6 hPa 0,0 l/m 9,7 km/h N 0,9 C 5,7 C 27,4 km/h
04.01.2018 08:00 8,2 C 61 % 1003,7 hPa 0,0 l/m 10,4 km/h N 1,1 C 5,4 C 31,0 km/h
04.01.2018 09:00 8,4 C 60 % 1004,0 hPa 0,0 l/m 8,8 km/h N 1,0 C 6,6 C 27,0 km/h
04.01.2018 10:00 8,8 C 58 % 1004,6 hPa 0,0 l/m 6,0 km/h N 1,0 C 8,8 C 21,3 km/h
04.01.2018 11:00 9,4 C 59 % 1004,6 hPa 0,0 l/m 6,4 km/h N 1,8 C 8,8 C 25,4 km/h
04.01.2018 12:00 9,4 C 60 % 1004,0 hPa 0,0 l/m 5,4 km/h N 2,0 C 9,0 C 23,3 km/h
04.01.2018 13:00 9,4 C 59 % 1003,6 hPa 0,0 l/m 2,1 km/h N 1,9 C 9,4 C 10,1 km/h
04.01.2018 14:00 9,2 C 60 % 1003,0 hPa 0,0 l/m 0,9 km/h N 1,8 C 9,2 C 5,6 km/h
04.01.2018 15:00 8,7 C 61 % 1003,1 hPa 0,0 l/m 0,0 km/h N 1,6 C 8,7 C 0,0 km/h
04.01.2018 16:00 7,5 C 66 % 1002,8 hPa 0,0 l/m 0,0 km/h N 1,6 C 7,5 C 0,0 km/h
04.01.2018 17:00 6,3 C 72 % 1002,2 hPa 0,0 l/m 0,0 km/h N 1,5 C 6,3 C 0,0 km/h
04.01.2018 18:00 5,6 C 76 % 1001,9 hPa 0,0 l/m 0,2 km/h N 1,7 C 5,6 C 2,4 km/h
04.01.2018 19:00 5,3 C 77 % 1001,4 hPa 0,0 l/m 0,1 km/h N 1,7 C 5,3 C 0,8 km/h
04.01.2018 20:00 4,9 C 78 % 1000,8 hPa 0,0 l/m 0,1 km/h N 1,4 C 4,9 C 1,2 km/h
04.01.2018 21:00 5,5 C 79 % 1000,6 hPa 0,0 l/m 0,4 km/h N 2,2 C 5,5 C 5,6 km/h
04.01.2018 22:00 6,1 C 80 % 1000,2 hPa 0,5 l/m 0,0 km/h N 2,9 C 6,1 C 0,4 km/h
04.01.2018 23:00 5,6 C 81 % 1000,0 hPa 1,3 l/m 0,1 km/h N 2,6 C 5,6 C 1,2 km/h
05.01.2018 00:00 5,5 C 83 % 999,6 hPa 1,0 l/m 1,3 km/h N 2,9 C 5,5 C 6,9 km/h
05.01.2018 01:00 5,7 C 83 % 999,3 hPa 2,6 l/m 0,0 km/h N 3,1 C 5,7 C 2,0 km/h
05.01.2018 02:00 6,1 C 83 % 999,8 hPa 3,1 l/m 0,1 km/h N 3,4 C 6,1 C 1,6 km/h
05.01.2018 03:00 6,2 C 83 % 1000,7 hPa 1,0 l/m 0,3 km/h N 3,5 C 6,2 C 3,6 km/h
05.01.2018 04:00 5,9 C 83 % 1001,2 hPa 0,3 l/m 0,1 km/h N 3,3 C 5,9 C 2,0 km/h
05.01.2018 05:00 8,6 C 84 % 1001,1 hPa 0,0 l/m 8,2 km/h N 6,0 C 6,9 C 32,2 km/h
05.01.2018 06:00 10,1 C 76 % 1001,2 hPa 0,0 l/m 11,2 km/h N 6,1 C 7,1 C 36,2 km/h
05.01.2018 07:00 10,2 C 69 % 1002,5 hPa 0,0 l/m 9,9 km/h N 4,8 C 8,0 C 30,2 km/h
05.01.2018 08:00 9,8 C 70 % 1003,8 hPa 0,0 l/m 8,2 km/h N 4,5 C 8,5 C 26,5 km/h
05.01.2018 09:00 10,5 C 64 % 1004,6 hPa 0,0 l/m 7,0 km/h N 3,9 C 10,1 C 24,5 km/h
05.01.2018 10:00 11,3 C 65 % 1005,1 hPa 0,0 l/m 0,8 km/h N 5,0 C 11,3 C 7,7 km/h
05.01.2018 11:00 11,8 C 66 % 1004,9 hPa 0,0 l/m 0,0 km/h N 5,6 C 11,8 C 2,0 km/h
05.01.2018 12:00 11,8 C 69 % 1004,7 hPa 0,0 l/m 0,1 km/h N 6,3 C 11,8 C 2,4 km/h
05.01.2018 13:00 10,5 C 72 % 1004,7 hPa 0,0 l/m 0,0 km/h N 5,6 C 10,5 C 2,0 km/h
05.01.2018 14:00 10,0 C 72 % 1004,8 hPa 0,0 l/m 0,0 km/h N 5,2 C 10,0 C 2,0 km/h
05.01.2018 15:00 9,1 C 74 % 1005,2 hPa 0,0 l/m 0,0 km/h N 4,7 C 9,1 C 0,0 km/h
05.01.2018 16:00 8,2 C 77 % 1005,1 hPa 0,0 l/m 0,0 km/h N 4,4 C 8,2 C 0,0 km/h
05.01.2018 17:00 7,5 C 79 % 1004,9 hPa 0,0 l/m 0,0 km/h N 4,2 C 7,5 C 0,4 km/h
05.01.2018 18:00 7,0 C 81 % 1004,6 hPa 0,0 l/m 0,0 km/h N 3,9 C 7,0 C 0,0 km/h
05.01.2018 19:00 6,1 C 81 % 1005,0 hPa 0,0 l/m 0,0 km/h N 3,1 C 6,1 C 0,0 km/h
05.01.2018 20:00 5,0 C 82 % 1005,0 hPa 0,0 l/m 0,0 km/h N 2,2 C 5,0 C 0,0 km/h
05.01.2018 21:00 4,8 C 83 % 1005,3 hPa 0,0 l/m 0,0 km/h N 2,1 C 4,8 C 0,0 km/h
05.01.2018 22:00 4,3 C 83 % 1005,8 hPa 0,0 l/m 0,0 km/h N 1,7 C 4,3 C 0,0 km/h
05.01.2018 23:00 3,7 C 83 % 1006,2 hPa 0,0 l/m 0,0 km/h N 1,1 C 3,7 C 0,8 km/h
06.01.2018 00:00 2,4 C 84 % 1006,4 hPa 0,0 l/m 0,0 km/h N 0,0 C 2,4 C 0,0 km/h
06.01.2018 01:00 1,5 C 84 % 1006,8 hPa 0,0 l/m 0,0 km/h N -0,9 C 1,5 C 0,0 km/h
06.01.2018 02:00 0,9 C 84 % 1007,2 hPa 0,0 l/m 0,0 km/h N -1,5 C 0,9 C 0,0 km/h
06.01.2018 03:00 0,8 C 84 % 1007,3 hPa 0,0 l/m 0,0 km/h N -1,6 C 0,8 C 0,0 km/h
06.01.2018 04:00 1,2 C 84 % 1007,5 hPa 0,0 l/m 0,0 km/h N -1,2 C 1,2 C 0,0 km/h
06.01.2018 05:00 1,7 C 84 % 1008,1 hPa 0,0 l/m 0,2 km/h N -0,7 C 1,7 C 2,4 km/h
06.01.2018 06:00 1,1 C 84 % 1008,8 hPa 0,0 l/m 0,0 km/h N -1,3 C 1,1 C 0,0 km/h
06.01.2018 07:00 1,0 C 84 % 1009,3 hPa 0,0 l/m 0,0 km/h N -1,3 C 1,0 C 0,0 km/h
06.01.2018 08:00 2,0 C 84 % 1009,8 hPa 0,0 l/m 0,0 km/h N -0,4 C 2,0 C 0,0 km/h
06.01.2018 09:00 3,3 C 84 % 1010,3 hPa 0,0 l/m 0,0 km/h N 0,9 C 3,3 C 0,0 km/h
06.01.2018 10:00 4,9 C 84 % 1010,4 hPa 0,0 l/m 0,0 km/h N 2,4 C 4,9 C 0,0 km/h
06.01.2018 11:00 6,3 C 84 % 1010,0 hPa 0,0 l/m 0,0 km/h N 3,8 C 6,3 C 2,4 km/h
06.01.2018 12:00 7,4 C 84 % 1009,6 hPa 0,0 l/m 0,0 km/h N 4,9 C 7,4 C 1,6 km/h
06.01.2018 13:00 7,4 C 84 % 1009,4 hPa 0,0 l/m 0,0 km/h N 4,8 C 7,4 C 0,8 km/h
06.01.2018 14:00 7,3 C 84 % 1009,3 hPa 0,0 l/m 0,0 km/h N 4,8 C 7,3 C 0,4 km/h
06.01.2018 15:00 7,2 C 84 % 1009,6 hPa 0,0 l/m 0,0 km/h N 4,7 C 7,2 C 0,4 km/h
06.01.2018 16:00 7,1 C 84 % 1009,8 hPa 0,0 l/m 0,0 km/h N 4,5 C 7,1 C 0,0 km/h
06.01.2018 17:00 6,9 C 83 % 1010,1 hPa 0,0 l/m 0,0 km/h N 4,3 C 6,9 C 0,0 km/h
06.01.2018 18:00 6,9 C 84 % 1010,4 hPa 0,0 l/m 0,0 km/h N 4,4 C 6,9 C 0,0 km/h
06.01.2018 19:00 7,1 C 84 % 1010,7 hPa 0,0 l/m 0,0 km/h N 4,6 C 7,1 C 0,0 km/h
06.01.2018 20:00 7,1 C 84 % 1011,0 hPa 0,0 l/m 0,0 km/h N 4,6 C 7,1 C 0,0 km/h
06.01.2018 21:00 6,9 C 84 % 1011,7 hPa 0,0 l/m 0,0 km/h N 4,4 C 6,9 C 0,4 km/h
06.01.2018 22:00 6,7 C 84 % 1012,1 hPa 0,0 l/m 3,0 km/h N 4,2 C 6,7 C 8,0 km/h
06.01.2018 23:00 6,4 C 84 % 1012,8 hPa 0,0 l/m 3,1 km/h N 3,9 C 6,4 C 7,6 km/h
07.01.2018 00:00 6,1 C 83 % 1013,2 hPa 0,0 l/m 3,2 km/h N 3,4 C 6,1 C 10,1 km/h
07.01.2018 01:00 5,8 C 83 % 1013,7 hPa 0,0 l/m 0,8 km/h N 3,2 C 5,8 C 4,8 km/h
07.01.2018 02:00 5,9 C 83 % 1014,4 hPa 0,0 l/m 0,8 km/h N 3,3 C 5,9 C 5,6 km/h
07.01.2018 03:00 6,1 C 83 % 1014,9 hPa 0,0 l/m 0,8 km/h N 3,4 C 6,1 C 6,0 km/h
07.01.2018 04:00 6,1 C 83 % 1015,1 hPa 0,0 l/m 0,8 km/h N 3,4 C 6,1 C 4,0 km/h
07.01.2018 05:00 6,3 C 83 % 1015,7 hPa 0,0 l/m 0,2 km/h N 3,6 C 6,3 C 2,4 km/h
07.01.2018 06:00 6,3 C 83 % 1016,2 hPa 0,0 l/m 0,0 km/h N 3,7 C 6,3 C 0,0 km/h
07.01.2018 07:00 6,4 C 83 % 1017,3 hPa 0,0 l/m 0,0 km/h N 3,8 C 6,4 C 0,0 km/h
07.01.2018 08:00 6,6 C 83 % 1018,6 hPa 0,0 l/m 0,0 km/h N 3,9 C 6,6 C 0,0 km/h
07.01.2018 09:00 7,0 C 83 % 1019,5 hPa 0,0 l/m 0,0 km/h N 4,3 C 7,0 C 0,0 km/h
07.01.2018 10:00 7,6 C 83 % 1020,1 hPa 0,0 l/m 0,0 km/h N 4,9 C 7,6 C 0,4 km/h
07.01.2018 11:00 8,0 C 83 % 1020,3 hPa 0,0 l/m 0,0 km/h N 5,3 C 8,0 C 0,0 km/h
07.01.2018 12:00 8,7 C 83 % 1020,8 hPa 0,0 l/m 0,0 km/h N 6,0 C 8,7 C 0,8 km/h
07.01.2018 13:00 8,6 C 83 % 1021,0 hPa 0,0 l/m 0,0 km/h N 5,9 C 8,6 C 0,0 km/h
07.01.2018 14:00 8,3 C 83 % 1021,2 hPa 0,0 l/m 0,0 km/h N 5,6 C 8,3 C 0,0 km/h
07.01.2018 15:00 8,1 C 83 % 1021,8 hPa 0,0 l/m 0,0 km/h N 5,4 C 8,1 C 0,0 km/h
07.01.2018 16:00 7,8 C 83 % 1022,6 hPa 0,0 l/m 0,0 km/h N 5,1 C 7,8 C 0,0 km/h
07.01.2018 17:00 7,5 C 83 % 1023,3 hPa 0,0 l/m 0,0 km/h N 4,9 C 7,5 C 0,0 km/h
07.01.2018 18:00 7,3 C 83 % 1023,6 hPa 0,0 l/m 0,0 km/h N 4,6 C 7,3 C 0,0 km/h
07.01.2018 19:00 7,2 C 83 % 1024,0 hPa 0,0 l/m 0,0 km/h N 4,5 C 7,2 C 0,4 km/h
07.01.2018 20:00 7,2 C 83 % 1024,1 hPa 0,0 l/m 0,0 km/h N 4,5 C 7,2 C 1,2 km/h
07.01.2018 21:00 6,8 C 83 % 1024,4 hPa 0,3 l/m 0,0 km/h N 4,1 C 6,8 C 1,6 km/h
07.01.2018 22:00 6,4 C 83 % 1024,8 hPa 0,0 l/m 0,0 km/h N 3,8 C 6,4 C 0,8 km/h
07.01.2018 23:00 6,3 C 84 % 1024,8 hPa 0,3 l/m 0,0 km/h N 3,8 C 6,3 C 0,4 km/h
Min-Datum _ 01.01.18 04.01.18 03.01.18 - 01.01.18 - 01.01.18 01.01.18 01.01.18
_ Min-Zeit 02:15 02:15 12:30 - 00:00 - 02:15 02:15 00:00
Minimum _ -0,6 C 56 % 994,2 hPa - 0,0 km/h - -3,0 C -0,6 C 0,0 km/h
Max-Datum _ 05.01.18 01.01.18 07.01.18 05.01.18 04.01.18 - 05.01.18 05.01.18 04.01.18
_ Max-Zeit 11:45 00:30 22:15 02:00 00:45 - 05:45 11:45 00:30
Maximum _ 12,1 C 84 % 1024,9 hPa 3,1 l/m 22,2 km/h
N
- 7,0 C 12,1 C 57,9 km/h
N
Durchschnitt _ 6,0 C 75 % 1008,2 hPa #15,3 l/m 3,9 km/h N 1,9 C 4,9 C 11,8 km/h